Station BLTM2 - 8574680 - Baltimore, MD Image indicating link to RSS feed of recent meteorological observations for station BLTM2


Conditions at BLTM2 as of
(9:18 pm EDT on 07/13/2024)
0118 GMT on 07/14/2024:
     

Click on the graph icon in the table below to see a time series plot of the last five days of that observation.

5-day plot - Wind Speed Wind Speed (WSPD): 0.0 kts
5-day plot - Wind Gust Wind Gust (GST): 2.9 kts
5-day plot - Water Temperature Water Temperature (WTMP): 84.9 °F
5-day plot - Wind Speed at 10 Meters Wind Speed at 10 meters (WSPD10M): 1.9 kts
5-day plot - Wind Speed at 20 Meters Wind Speed at 20 meters (WSPD20M): 1.9 kts
5-day plot -  Wind Speed, Wind Gust and Atmospheric Pressure Combined plot of Wind Speed, Gust, and Air Pressure
NOS Water Level Observation Network Water Level
Previous observations
TIME
(EDT)
5-day plot - Wind Direction
WDIR
 
5-day plot - Wind Speed
WSPD
kts
5-day plot - Wind Gust
GST
kts
5-day plot - Wave Height
WVHT
ft
5-day plot - Dominant Wave Period
DPD
sec
5-day plot - Average Wave Period
APD
sec
5-day plot - Mean Wave Direction
MWD
 
5-day plot - Atmospheric Pressure
PRES
in
5-day plot - Pressure Tendency
PTDY
in
5-day plot - Air Temperature
ATMP
°F
5-day plot - Water Temperature
WTMP
°F
5-day plot - Dew Point
DEWP
°F
5-day plot - Salinity
SAL
psu
5-day plot - Visibility
VIS
nmi
5-day plot - Tide (above MLLW)
TIDE
ft
2024-07-13 09:12 pmSSE 1.9 4.1------- 84.9----
2024-07-13 09:06 pmSSE 1.9 4.1------- 84.9----
2024-07-13 09:00 pm SE 1.9 5.1------ 83.1 84.7----
2024-07-13 08:54 pmSSE 2.9 5.1------ 83.1 84.7----
2024-07-13 08:48 pmSSE 2.9 5.1------- 84.7----
2024-07-13 08:42 pm SE 4.1 7.0------- 84.7----
2024-07-13 08:36 pmSSE 4.1 6.0------- 84.7----
2024-07-13 08:30 pmSSE 5.1 8.0------ 83.5 84.6----
2024-07-13 08:24 pm SE 6.0 8.9------ 83.7 84.7----
2024-07-13 08:18 pm SE 4.1 8.0------ 83.7 84.6----
2024-07-13 08:12 pm SE 5.1 8.9------ 83.7 84.4----
2024-07-13 08:06 pm SE 7.0 9.9------ 83.5 84.4----
2024-07-13 08:00 pm SE 5.1 11.1------ 83.7 84.4----
2024-07-13 07:54 pm SE 5.1 9.9------ 83.8 84.6----
2024-07-13 07:48 pmSSE 2.9 8.0------ 84.0 84.4----
2024-07-13 07:42 pm SE 4.1 9.9------ 84.2 84.4----
2024-07-13 07:36 pm SE 5.1 8.0------ 84.2 84.4----
2024-07-13 07:30 pmSSE 4.1 8.9------ 84.9 84.4----
2024-07-13 07:24 pmSSE 2.9 5.1------ 85.6 84.4----
2024-07-13 07:18 pmSSE 4.1 5.1------ 85.6 84.6----
2024-07-13 07:12 pmSSE 2.9 6.0------ 85.6 84.6----
2024-07-13 07:00 pmSSE 4.1 6.0------ 86.0 84.7----
2024-07-13 06:54 pmSSE 4.1 7.0------ 86.2 84.7----
2024-07-13 06:48 pmSSE 4.1 7.0------ 86.2 84.7----
2024-07-13 06:42 pm SE 5.1 8.0------ 85.8 84.7----
2024-07-13 06:36 pmSSE 4.1 8.0------ 86.2 84.7----
2024-07-13 06:30 pm SE 5.1 8.9------- 84.9----
2024-07-13 06:24 pm SE 7.0 9.9------- 84.7----
2024-07-13 06:18 pm SE 8.0 12.0------ 86.0 84.7----
2024-07-13 06:12 pm SE 8.0 11.1------ 86.0 84.4----
2024-07-13 06:06 pm SE 8.0 11.1------ 86.4 84.4----
2024-07-13 06:00 pm SE 6.0 8.9------ 86.5 84.2----
2024-07-13 05:54 pm SE 6.0 9.9------ 86.7 84.2----
2024-07-13 05:48 pm SE 5.1 9.9------ 86.7 84.2----
2024-07-13 05:42 pm SE 6.0 9.9------ 86.5 84.4----
2024-07-13 05:36 pm SE 5.1 8.0------ 86.5 84.4----
2024-07-13 05:30 pm SE 7.0 9.9------- 84.6----
2024-07-13 05:24 pm SE 5.1 8.0------- 84.7----
2024-07-13 05:18 pm SE 6.0 8.0------ 86.2 84.7----
2024-07-13 05:12 pm SE 5.1 7.0------ 86.4 84.7----
2024-07-13 05:06 pm SE 6.0 8.0------ 86.2 84.7----
2024-07-13 05:00 pm SE 6.0 8.0------ 86.0 84.7----
2024-07-13 04:54 pm SE 6.0 8.0------ 86.2 84.9----
2024-07-13 04:48 pmESE 5.1 6.0------ 86.4 84.7----
2024-07-13 04:42 pmSSE 4.1 5.1------ 86.5 84.7----
2024-07-13 04:36 pm SE 5.1 6.0------ 85.8 84.6----
2024-07-13 04:30 pm SE 5.1 6.0------- 84.2----
2024-07-13 04:24 pm SE 5.1 7.0------- 84.2----
2024-07-13 04:18 pmESE 5.1 6.0------ 85.6 84.2----
2024-07-13 04:12 pm SE 5.1 6.0------ 86.2 84.0----
2024-07-13 04:06 pmSSE 4.1 6.0------ 86.4 84.0----
2024-07-13 04:00 pm SE 4.1 7.0------- 84.0----
2024-07-13 03:54 pmSSE 2.9 8.0------- 84.2----
2024-07-13 03:48 pm SE 7.0 8.0------- 84.2----
2024-07-13 03:42 pmSSE 4.1 8.0------- 84.4----
2024-07-13 03:36 pm SE 6.0 8.0------- 84.7----
2024-07-13 03:30 pm SE 6.0 8.0------ 84.4 84.7----
2024-07-13 03:24 pm SE 6.0 8.9------ 84.4 84.6----
2024-07-13 03:18 pm SE 7.0 8.0------ 84.4 84.6----
2024-07-13 03:12 pm SE 5.1 8.9------ 84.7 84.7----
2024-07-13 03:06 pmESE 6.0 8.0------ 84.0 84.7----
2024-07-13 03:00 pm SE 5.1 8.9------- 84.6----
2024-07-13 02:54 pm SE 7.0 9.9------- 84.4----
2024-07-13 02:48 pm SE 7.0 8.0------ 83.5 84.4----
2024-07-13 02:42 pm SE 5.1 8.0------ 83.8 84.2----
2024-07-13 02:36 pmESE 7.0 9.9------ 83.1 84.2----
2024-07-13 02:30 pmSSE 4.1 8.9------ 84.0 84.2----
2024-07-13 02:24 pm SE 5.1 8.0------ 83.8 84.2----
2024-07-13 02:18 pm SE 5.1 8.9------ 83.3 84.2----
2024-07-13 02:12 pm SE 6.0 8.0------ 83.3 84.2----
2024-07-13 02:06 pm SE 7.0 9.9------ 82.9 84.2----
2024-07-13 02:00 pm SE 7.0 9.9------ 82.9 84.2----
2024-07-13 01:54 pm SE 7.0 9.9------ 82.8 84.2----
2024-07-13 01:48 pm SE 6.0 8.9------------
2024-07-13 01:42 pm SE 5.1 8.0------------
2024-07-13 01:36 pm SE 5.1 7.0------------
2024-07-13 01:30 pm SE 4.1 6.0------ 83.5 84.4----
2024-07-13 01:24 pmSSE 2.9 6.0------ 84.0 84.2----
2024-07-13 01:18 pm SE 4.1 6.0------ 82.9 84.2----
2024-07-13 01:12 pm S 1.9 6.0------ 83.1 84.0----
2024-07-13 01:06 pmESE 6.0 6.0------ 82.4 84.0----
2024-07-13 01:00 pm---------- 84.0----
2024-07-13 12:54 pm---------- 83.8----
2024-07-13 12:48 pmESE 1.9 5.1------ 83.5 84.0----
2024-07-13 12:42 pmESE 1.9 4.1------ 83.8 84.0----
2024-07-13 12:36 pm- 0.0 1.9------ 83.5 84.0----
2024-07-13 12:30 pm E 1.0 4.1------ 82.9 84.0----
2024-07-13 12:24 pm SE 4.1 7.0------ 82.2 84.0----
2024-07-13 12:18 pmSSE 5.1 7.0------------
2024-07-13 12:12 pmSSE 4.1 6.0------------
2024-07-13 12:06 pm SE 2.9 4.1------------
2024-07-13 12:00 pm E 1.9 2.9------ 81.9 83.8----
2024-07-13 11:54 amENE 1.0 2.9------ 81.3 83.8----
2024-07-13 11:48 am SE 1.9 4.1------ 81.3 83.8----
2024-07-13 11:42 amESE 2.9 5.1------ 81.5 83.8----
2024-07-13 11:36 am SW 1.0 4.1------ 82.6 83.8----
2024-07-13 11:30 am S 1.9 5.1------ 81.9 83.8----
2024-07-13 11:24 am SW 1.9 5.1------ 81.9 83.8----
2024-07-13 11:18 am SE 1.9 4.1------ 81.1 83.8----
2024-07-13 11:12 am SE 1.0 4.1------ 81.0 83.8----
2024-07-13 11:06 amSSW 1.0 4.1------ 81.1 83.8----
2024-07-13 11:00 am S 1.9 2.9------ 80.8 83.8----
2024-07-13 10:54 am SW 1.9 4.1------ 80.2 83.7----
2024-07-13 10:48 amSSW 1.0 4.1------ 80.2 83.7----
2024-07-13 10:42 am SW 1.9 5.1------ 80.1 83.8----
2024-07-13 10:36 am S 1.9 2.9------ 80.1 83.8----
2024-07-13 10:30 am- 0.0 1.0------ 79.7 83.8----
2024-07-13 10:24 am- 0.0 1.9------ 79.5 83.8----
2024-07-13 10:18 am- 0.0 1.9------ 79.9 84.0----
2024-07-13 10:12 amESE 1.0 1.9------ 79.7 84.0----
2024-07-13 10:06 am N 1.0 2.9------ 79.7 84.0----
2024-07-13 10:00 am N 1.9 2.9------ 79.7 84.0----
2024-07-13 09:54 am- 0.0 1.9------ 79.5 83.8----
2024-07-13 09:48 am- 0.0 2.9------ 79.3 84.0----
2024-07-13 09:42 am SW 1.0 1.9------ 79.2 84.0----
2024-07-13 09:36 am SW 1.0 2.9------ 78.8 84.0----
2024-07-13 09:30 am- 0.0 1.9------ 78.8 83.8----
2024-07-13 09:24 am- 0.0 4.1------ 78.4 83.8----
2024-07-13 09:18 am S 1.9 5.1------ 78.4 83.8----
2024-07-13 09:12 am S 1.9 4.1------ 78.6 83.8----
2024-07-13 09:06 amSSE 1.9 4.1------ 78.1 83.8----
2024-07-13 09:00 amSSE 1.9 5.1------ 78.1 83.8----
2024-07-13 08:54 amSSE 1.0 2.9------ 78.4 83.8----
2024-07-13 08:48 am- 0.0 1.0------ 78.6 83.8----
2024-07-13 08:42 am- 0.0 1.9------ 78.8 83.8----
2024-07-13 08:36 am- 0.0 1.0------ 79.5 83.8----
2024-07-13 08:30 am- 0.0 2.9------ 78.4 83.8----
2024-07-13 08:24 amNNE 1.9 1.9------ 77.7 83.8----
2024-07-13 08:18 am NE 1.0 1.9------ 77.9 83.8----
2024-07-13 08:12 am- 0.0 1.9------ 77.9 83.8----
2024-07-13 08:06 amENE 1.0 1.9------ 76.8 83.7----
2024-07-13 08:00 amNNE 1.0 1.9------ 76.6 83.7----
2024-07-13 07:54 am- 0.0 1.0------ 76.6 83.7----
2024-07-13 07:48 am- 0.0 1.0------- 83.8----
2024-07-13 07:42 am NE 1.0 2.9------- 83.8----
2024-07-13 07:36 am- 0.0 1.9------- 83.8----
2024-07-13 07:30 am- 0.0 1.9------- 83.7----
2024-07-13 07:24 am E 1.0 2.9------- 83.8----
2024-07-13 07:18 am E 1.9 2.9------ 75.9 83.7----
2024-07-13 07:12 amENE 1.9 2.9------ 75.9 83.8----
2024-07-13 07:06 am E 1.0 2.9------ 75.9 83.8----
2024-07-13 07:00 amESE 2.9 2.9------ 75.9 83.8----
2024-07-13 06:54 am E 1.9 2.9------ 76.3 83.8----
2024-07-13 06:48 am NE 1.9 4.1------ 75.9 83.8----
2024-07-13 06:42 amNNE 1.0 2.9------ 75.7 83.8----
2024-07-13 06:36 amENE 1.0 1.9------ 75.7 83.8----
2024-07-13 06:30 am NE 1.0 1.9------ 75.7 83.7----
2024-07-13 06:24 amNNE 1.0 1.9------ 75.4 83.8----
2024-07-13 06:18 am- 0.0 1.0------ 75.4 83.8----
2024-07-13 06:12 am- 0.0 0.0------ 75.2 83.8----
2024-07-13 06:06 am- 0.0 1.9------ 75.2 83.8----
2024-07-13 06:00 am- 0.0 1.0------- 83.8----
2024-07-13 05:54 am E 1.0 1.9------- 83.8----
2024-07-13 05:48 am- 0.0 1.0------- 83.8----
2024-07-13 05:42 am- 0.0 0.0------- 83.8----
2024-07-13 05:36 am- 0.0 0.0------- 83.8----
2024-07-13 05:30 am- 0.0 1.9------ 75.2 83.8----
2024-07-13 05:24 am SW 1.0 1.9------ 75.4 83.8----
2024-07-13 05:18 am- 0.0 1.0------ 75.4 83.8----
2024-07-13 05:12 am- 0.0 1.9------ 75.4 83.8----
2024-07-13 05:06 am SW 1.0 1.9------ 75.2 83.8----
2024-07-13 05:00 am- 0.0 1.9------ 75.2 83.8----
2024-07-13 04:54 amSSE 1.0 1.9------ 75.2 83.8----
2024-07-13 04:48 amSSE 1.0 2.9------ 75.2 83.8----
2024-07-13 04:42 amSSE 1.0 1.9------ 75.0 83.8----
2024-07-13 04:36 amSSE 1.9 2.9------ 75.0 83.8----
2024-07-13 04:30 amSSE 1.0 1.9------ 75.4 84.0----
2024-07-13 04:24 am- 0.0 1.9------ 75.4 83.8----
2024-07-13 04:18 am- 0.0 1.9------- 83.8----
2024-07-13 04:12 amSSW 1.0 2.9------- 83.8----
2024-07-13 04:06 am- 0.0 1.9------- 84.0----
2024-07-13 04:00 am- 0.0 2.9------- 84.0----
2024-07-13 03:54 amSSW 1.9 4.1------- 84.0----
2024-07-13 03:48 am- 0.0 4.1------ 75.4 84.0----
2024-07-13 03:42 amSSW 1.9 5.1------ 75.4 84.0----
2024-07-13 03:36 am- 0.0 4.1------ 75.6 84.0----
2024-07-13 03:30 amSSW 2.9 4.1------ 75.4 83.8----
2024-07-13 03:24 am- 0.0 2.9------ 75.6 84.0----
2024-07-13 03:18 am W 1.0 2.9------ 75.6 84.0----
2024-07-13 03:12 am- 0.0 2.9------ 75.7 84.0----
2024-07-13 03:06 amSSW 1.0 5.1------ 75.6 84.0----
2024-07-13 03:00 amSSW 1.0 4.1------ 75.7 84.0----
2024-07-13 02:54 am S 1.0 2.9------ 75.7 84.0----
2024-07-13 02:48 amSSW 1.0 4.1------ 75.7 84.2----
2024-07-13 02:42 am S 1.0 4.1------ 75.7 84.2----
2024-07-13 02:36 amSSW 1.9 5.1------ 75.7 84.0----
2024-07-13 02:30 am SW 2.9 5.1------ 75.7 84.2----
2024-07-13 02:24 am SW 1.0 4.1------ 75.9 84.2----
2024-07-13 02:18 amSSW 1.9 5.1------ 76.1 84.2----
2024-07-13 02:12 amSSW 1.0 4.1------ 76.1 84.2----
2024-07-13 02:06 amSSW 1.9 4.1------ 76.1 84.2----
2024-07-13 02:00 amSSW 2.9 4.1------ 76.1 84.2----
2024-07-13 01:54 am SW 1.9 5.1------ 76.1 84.2----
2024-07-13 01:48 am SW 1.9 5.1------ 76.1 84.2----
2024-07-13 01:42 am SW 1.0 4.1------ 76.3 84.2----
2024-07-13 01:36 am S 1.0 5.1------ 76.5 84.2----
2024-07-13 01:30 amSSW 1.9 4.1------ 76.5 84.2----
2024-07-13 01:24 am- 0.0 4.1------ 76.5 84.2----
2024-07-13 01:18 am S 1.9 5.1------ 76.5 84.2----
2024-07-13 01:12 amSSW 1.9 6.0------ 76.6 84.2----
2024-07-13 01:06 am SW 1.9 6.0------ 76.6 84.2----
2024-07-13 01:00 amSSW 1.9 5.1------ 76.8 84.4----
2024-07-13 12:54 am S 1.9 6.0------ 76.8 84.4----
2024-07-13 12:48 am S 2.9 7.0------ 76.8 84.4----
2024-07-13 12:42 am S 4.1 8.0------ 77.0 84.4----
2024-07-13 12:36 am S 2.9 6.0------ 77.4 84.2----
2024-07-13 12:30 am S 1.9 5.1------ 77.4 84.2----
2024-07-13 12:24 am S 1.0 5.1------ 77.5 84.2----
2024-07-13 12:18 am S 2.9 7.0------ 77.4 84.2----
2024-07-13 12:12 amSSW 1.0 6.0------ 77.4 84.4----
2024-07-13 12:06 am S 2.9 8.0------ 77.4 84.4----
2024-07-13 12:00 am S 1.9 7.0------ 77.5 84.4----
2024-07-12 11:54 pmSSE 5.1 9.9------ 77.5 84.4----
2024-07-12 11:48 pmSSE 2.9 7.0------ 77.7 84.4----
2024-07-12 11:42 pm S 1.9 6.0------ 77.9 84.4----
2024-07-12 11:36 pmSSE 1.9 6.0------ 77.9 84.4----
2024-07-12 11:30 pm S 1.9 5.1------ 77.9 84.4----
2024-07-12 11:24 pm S 1.0 2.9------ 77.9 84.4----
2024-07-12 11:18 pmSSW 1.0 4.1------ 77.9 84.4----
2024-07-12 11:12 pmSSE 1.0 5.1------ 77.9 84.4----
2024-07-12 11:06 pm S 1.0 5.1------ 78.1 84.4----
2024-07-12 11:00 pm S 1.9 7.0------ 78.1 84.4----
2024-07-12 10:54 pmSSE 2.9 7.0------ 78.1 84.4----
2024-07-12 10:48 pmSSE 1.0 7.0------ 78.3 84.6----
2024-07-12 10:42 pmSSE 1.9 5.1------ 78.4 84.6----
2024-07-12 10:36 pm S 1.9 4.1------ 78.6 84.6----
2024-07-12 10:30 pmSSW 1.9 4.1------ 78.8 84.6----
2024-07-12 10:24 pm- 0.0 6.0------ 79.0 84.6----
2024-07-12 10:18 pm S 1.0 2.9------ 79.0 84.6----
2024-07-12 10:12 pm- 0.0 2.9------ 79.2 84.6----
2024-07-12 10:06 pm S 1.9 4.1------ 79.2 84.4----
2024-07-12 10:00 pm S 1.9 2.9------ 79.3 84.4----
2024-07-12 09:54 pm- 0.0 4.1------ 79.3 84.4----
2024-07-12 09:48 pm- 0.0 6.0------ 79.3 84.4----
2024-07-12 09:42 pmSSW 1.0 4.1------ 79.3 84.6----
2024-07-12 09:36 pm S 1.9 4.1------ 79.3 84.6----
2024-07-12 09:30 pmSSE 1.0 1.9------ 79.3 84.6----
2024-07-12 09:24 pm S 1.0 4.1------ 79.3 84.4----
2024-07-12 09:18 pmSSE 2.9 4.1------ 79.2 84.6----
2024-07-12 09:12 pm- 0.0 4.1------ 79.3 84.4----
2024-07-12 09:06 pmSSE 1.0 2.9------ 79.3 84.4----
2024-07-12 09:00 pmSSE 1.9 5.1------ 79.2 84.4----
2024-07-12 08:54 pmSSE 1.9 4.1------ 79.2 84.4----